createdAt,value
2023-01-13T00:01:43.474Z,99530.16
2023-01-13T00:04:11.584Z,99525.31
2023-01-13T00:06:38.058Z,99525.00
2023-01-13T00:09:04.556Z,99533.66
2023-01-13T00:11:31.026Z,99531.34
2023-01-13T00:13:57.491Z,99526.59
2023-01-13T00:16:23.961Z,99512.78
2023-01-13T00:18:50.387Z,99502.28
2023-01-13T00:21:19.821Z,99512.63
2023-01-13T00:23:46.783Z,99513.31
2023-01-13T00:26:15.385Z,99532.38
2023-01-13T00:28:41.961Z,99527.44
2023-01-13T00:31:10.604Z,99533.09
2023-01-13T00:33:37.459Z,99529.44
2023-01-13T00:36:05.715Z,99527.16
2023-01-13T00:38:35.273Z,99524.59
2023-01-13T00:41:04.592Z,99524.53
2023-01-13T00:43:32.512Z,99501.47
2023-01-13T00:45:59.261Z,99511.88
2023-01-13T00:48:26.791Z,99508.00
2023-01-13T00:50:57.100Z,99503.03
2023-01-13T00:53:23.663Z,99497.81
2023-01-13T00:55:58.747Z,99498.06
2023-01-13T00:58:25.246Z,99499.22
2023-01-13T01:00:51.889Z,99501.97
2023-01-13T01:03:18.430Z,99503.56
2023-01-13T01:05:44.878Z,99497.38
2023-01-13T01:08:11.393Z,99515.22
2023-01-13T01:10:37.815Z,99516.03
2023-01-13T01:13:05.624Z,99525.88
2023-01-13T01:15:32.111Z,99522.94
2023-01-13T01:17:58.546Z,99542.44
2023-01-13T01:20:25.051Z,99542.06
2023-01-13T01:22:51.535Z,99536.94
2023-01-13T01:25:17.965Z,99541.94
2023-01-13T01:27:44.449Z,99543.34
2023-01-13T01:30:13.692Z,99558.00
2023-01-13T01:32:40.184Z,99562.09
2023-01-13T01:35:07.225Z,99560.91
2023-01-13T01:37:33.665Z,99566.69
2023-01-13T01:40:00.165Z,99565.72
2023-01-13T01:42:26.628Z,99565.78
2023-01-13T01:44:59.355Z,99550.44
2023-01-13T01:47:30.424Z,99552.41
2023-01-13T01:49:58.528Z,99535.31
2023-01-13T01:52:31.097Z,99488.97
2023-01-13T01:55:01.520Z,99548.41
2023-01-13T01:57:32.594Z,99535.16
2023-01-13T02:00:00.146Z,99513.88
2023-01-13T02:02:28.560Z,99499.75
2023-01-13T02:04:55.829Z,99513.56
2023-01-13T02:07:24.959Z,99514.78
2023-01-13T02:09:52.747Z,99532.28
2023-01-13T02:12:19.374Z,99532.94
2023-01-13T02:14:46.545Z,99524.19
2023-01-13T02:17:31.408Z,99534.13
2023-01-13T02:20:24.317Z,99537.44
2023-01-13T02:23:18.604Z,99548.50
2023-01-13T02:26:05.812Z,99552.00
2023-01-13T02:28:53.809Z,99539.31
2023-01-13T02:31:21.883Z,99542.91
2023-01-13T02:34:02.402Z,99548.41
2023-01-13T02:36:38.096Z,99542.97
2023-01-13T02:39:12.439Z,99542.22
2023-01-13T02:41:46.172Z,99538.28
2023-01-13T02:44:20.182Z,99539.47
2023-01-13T02:46:55.819Z,99552.56
2023-01-13T02:49:28.285Z,99539.19
2023-01-13T02:52:01.842Z,99542.13
2023-01-13T02:54:30.394Z,99531.00
2023-01-13T02:56:59.140Z,99518.66
2023-01-13T02:59:27.845Z,99514.59
2023-01-13T03:01:57.029Z,99519.47
2023-01-13T03:04:45.014Z,99515.25
2023-01-13T03:07:18.557Z,99522.41
2023-01-13T03:09:55.299Z,99517.63
2023-01-13T03:12:33.477Z,99509.06
2023-01-13T03:15:10.135Z,99518.66
2023-01-13T03:17:43.848Z,99504.56
2023-01-13T03:20:17.782Z,99507.75
2023-01-13T03:22:50.763Z,99508.16
2023-01-13T03:25:22.631Z,99513.41
2023-01-13T03:27:55.565Z,99515.03
2023-01-13T03:30:27.100Z,99510.25
2023-01-13T03:32:59.540Z,99504.81
2023-01-13T03:35:31.159Z,99514.03
2023-01-13T03:38:02.675Z,99517.00
2023-01-13T03:40:33.250Z,99510.63
2023-01-13T03:43:05.323Z,99506.56
2023-01-13T03:45:34.705Z,99515.59
2023-01-13T03:48:08.629Z,99505.19
2023-01-13T03:50:40.935Z,99505.94
2023-01-13T03:53:11.121Z,99511.00
2023-01-13T03:55:42.033Z,99513.97
2023-01-13T03:58:13.698Z,99498.75
2023-01-13T04:00:46.739Z,99519.34
2023-01-13T04:03:20.311Z,99518.53
2023-01-13T04:05:54.546Z,99515.97
2023-01-13T04:08:24.365Z,99504.47
2023-01-13T04:10:55.658Z,99511.19
2023-01-13T04:13:25.978Z,99528.91
2023-01-13T04:15:52.597Z,99533.91
2023-01-13T04:18:26.115Z,99531.59
2023-01-13T04:20:59.939Z,99530.38
2023-01-13T04:23:27.361Z,99527.22
2023-01-13T04:25:54.660Z,99528.91
2023-01-13T04:28:21.493Z,99524.72
2023-01-13T04:30:48.779Z,99525.28
2023-01-13T04:33:16.837Z,99519.47
2023-01-13T04:35:46.798Z,99518.75
2023-01-13T04:38:14.954Z,99533.41
2023-01-13T04:40:42.167Z,99537.31
2023-01-13T04:43:08.839Z,99535.81
2023-01-13T04:45:35.609Z,99545.59
2023-01-13T04:48:02.418Z,99534.72
2023-01-13T04:50:29.133Z,99544.91
2023-01-13T04:52:57.068Z,99532.63
2023-01-13T04:55:24.599Z,99539.50
2023-01-13T04:57:51.182Z,99528.69
2023-01-13T05:00:20.259Z,99525.66
2023-01-13T05:02:48.777Z,99514.25
2023-01-13T05:05:15.573Z,99526.56
2023-01-13T05:07:42.041Z,99516.44
2023-01-13T05:10:11.195Z,99516.84
2023-01-13T05:12:37.505Z,99509.56
2023-01-13T05:15:04.921Z,99512.88
2023-01-13T05:17:32.117Z,99505.41
2023-01-13T05:19:58.542Z,99509.06
2023-01-13T05:22:25.078Z,99497.88
2023-01-13T05:24:51.556Z,99501.06
2023-01-13T05:27:19.503Z,99509.25
2023-01-13T05:29:46.019Z,99516.13
2023-01-13T05:32:12.492Z,99517.91
2023-01-13T05:34:38.957Z,99524.91
2023-01-13T05:37:05.449Z,99531.00
2023-01-13T05:39:31.934Z,99521.66
2023-01-13T05:41:58.523Z,99518.09
2023-01-13T05:44:26.620Z,99534.16
2023-01-13T05:46:53.225Z,99539.72
2023-01-13T05:49:19.699Z,99534.22
2023-01-13T05:51:46.164Z,99542.28
2023-01-13T05:54:12.711Z,99551.81
2023-01-13T05:56:39.200Z,99546.16
2023-01-13T05:59:05.692Z,99545.41
2023-01-13T06:01:33.556Z,99557.41
2023-01-13T06:04:00.193Z,99548.03
2023-01-13T06:06:26.716Z,99542.47
2023-01-13T06:08:53.223Z,99550.09
2023-01-13T06:11:19.675Z,99557.56
2023-01-13T06:13:46.172Z,99555.97
2023-01-13T06:16:12.920Z,99549.34
2023-01-13T06:18:40.764Z,99560.38
2023-01-13T06:21:07.257Z,99547.22
2023-01-13T06:23:33.779Z,99561.13
2023-01-13T06:26:05.348Z,99557.13
2023-01-13T06:28:31.874Z,99565.69
2023-01-13T06:31:03.267Z,99573.69
2023-01-13T06:33:35.367Z,99565.41
2023-01-13T06:36:07.171Z,99554.44
2023-01-13T06:38:38.358Z,99581.84
2023-01-13T06:41:07.282Z,99574.59
2023-01-13T06:43:33.858Z,99569.09
2023-01-13T06:46:01.345Z,99571.41
2023-01-13T06:48:31.039Z,99582.41
2023-01-13T06:50:57.536Z,99577.91
2023-01-13T06:53:25.528Z,99571.88
2023-01-13T06:55:52.041Z,99582.69
2023-01-13T06:58:18.536Z,99583.66
2023-01-13T07:00:45.127Z,99575.72
2023-01-13T07:03:14.522Z,99596.34
2023-01-13T07:05:50.876Z,99580.94
2023-01-13T07:08:17.635Z,99597.94
2023-01-13T07:10:45.475Z,99602.25
2023-01-13T07:13:11.933Z,99617.88
2023-01-13T07:15:38.361Z,99615.91
2023-01-13T07:18:05.161Z,99615.78
2023-01-13T07:20:31.848Z,99614.69
2023-01-13T07:22:58.352Z,99620.13
2023-01-13T07:25:25.005Z,99613.94
2023-01-13T07:27:52.930Z,99622.63
2023-01-13T07:30:19.468Z,99616.53
2023-01-13T07:32:46.076Z,99612.50
2023-01-13T07:35:12.588Z,99610.59
2023-01-13T07:37:39.355Z,99617.59
2023-01-13T07:40:07.316Z,99619.34
2023-01-13T07:42:33.857Z,99620.16
2023-01-13T07:45:01.891Z,99626.03
2023-01-13T07:47:28.400Z,99633.06
2023-01-13T07:49:55.028Z,99623.84
2023-01-13T07:52:21.481Z,99636.13
2023-01-13T07:54:47.923Z,99639.66
2023-01-13T07:57:14.402Z,99642.38
2023-01-13T07:59:40.921Z,99636.84
2023-01-13T08:02:11.612Z,99629.66
2023-01-13T08:04:38.365Z,99635.16
2023-01-13T08:07:05.588Z,99629.47
2023-01-13T08:09:32.421Z,99638.63
2023-01-13T08:11:59.042Z,99641.13
2023-01-13T08:14:25.647Z,99642.09
2023-01-13T08:16:52.139Z,99651.28
2023-01-13T08:19:19.974Z,99650.25
2023-01-13T08:21:46.489Z,99654.63
2023-01-13T08:24:13.163Z,99662.16
2023-01-13T08:26:39.620Z,99653.81
2023-01-13T08:29:06.126Z,99674.94
2023-01-13T08:31:32.624Z,99668.19
2023-01-13T08:33:59.225Z,99678.41
2023-01-13T08:36:27.232Z,99680.19
2023-01-13T08:38:53.993Z,99681.66
2023-01-13T08:41:20.492Z,99693.44
2023-01-13T08:43:47.754Z,99668.34
2023-01-13T08:46:14.375Z,99681.94
2023-01-13T08:48:40.875Z,99694.88
2023-01-13T08:51:11.281Z,99690.63
2023-01-13T08:53:39.196Z,99698.84
2023-01-13T08:56:07.785Z,99691.72
2023-01-13T08:58:34.335Z,99691.13
2023-01-13T09:01:04.756Z,99684.13
2023-01-13T09:03:31.422Z,99687.81
2023-01-13T09:05:58.030Z,99684.69
2023-01-13T09:08:24.685Z,99681.19
2023-01-13T09:10:52.705Z,99687.44
2023-01-13T09:13:19.462Z,99679.63
2023-01-13T09:15:46.307Z,99700.25
2023-01-13T09:18:13.216Z,99679.78
2023-01-13T09:20:43.420Z,99682.00
2023-01-13T09:23:11.524Z,99676.06
2023-01-13T09:25:38.622Z,99684.13
2023-01-13T09:28:06.670Z,99687.44
2023-01-13T09:30:33.170Z,99669.09
2023-01-13T09:32:59.881Z,99675.56
2023-01-13T09:35:26.453Z,99682.19
2023-01-13T09:37:53.881Z,99689.28
2023-01-13T09:40:20.910Z,99684.41
2023-01-13T09:42:54.592Z,99681.28
2023-01-13T09:45:27.354Z,99683.47
2023-01-13T09:48:01.565Z,99681.91
2023-01-13T09:50:57.633Z,99692.81
2023-01-13T09:53:28.584Z,99688.56
2023-01-13T09:55:55.634Z,99695.72
2023-01-13T09:58:22.234Z,99702.88
2023-01-13T10:01:00.654Z,99705.78
2023-01-13T10:03:29.386Z,99711.16
2023-01-13T10:06:01.799Z,99716.25
2023-01-13T10:08:30.293Z,99709.31
2023-01-13T10:10:59.469Z,99718.06
2023-01-13T10:13:26.453Z,99713.19
2023-01-13T10:16:07.885Z,99702.09
2023-01-13T10:24:33.629Z,99710.28
2023-01-13T10:27:04.162Z,99703.81
2023-01-13T10:29:31.875Z,99713.13
2023-01-13T10:32:00.433Z,99713.97
2023-01-13T10:34:28.758Z,99711.59
2023-01-13T10:36:57.972Z,99715.41
2023-01-13T10:39:25.411Z,99713.03
2023-01-13T10:42:01.682Z,99719.03
2023-01-13T10:44:28.311Z,99701.50
2023-01-13T10:46:56.427Z,99723.09
2023-01-13T10:49:30.392Z,99703.75
2023-01-13T10:51:57.050Z,99725.94
2023-01-13T10:54:25.706Z,99733.19
2023-01-13T10:57:13.164Z,99732.00
2023-01-13T10:59:39.808Z,99733.16
2023-01-13T11:02:25.690Z,99739.31
2023-01-13T11:05:16.176Z,99738.66
2023-01-13T11:07:47.531Z,99724.34
2023-01-13T11:10:22.199Z,99724.91
2023-01-13T11:12:58.075Z,99736.44
2023-01-13T11:15:36.372Z,99742.25
2023-01-13T11:18:08.027Z,99731.66
2023-01-13T11:20:39.997Z,99726.47
2023-01-13T11:23:15.355Z,99742.81
2023-01-13T11:25:45.296Z,99745.50
2023-01-13T11:28:24.928Z,99746.44
2023-01-13T11:30:57.758Z,99728.06
2023-01-13T11:33:36.647Z,99735.06
2023-01-13T11:36:10.848Z,99741.06
2023-01-13T11:38:50.880Z,99750.75
2023-01-13T11:41:28.530Z,99736.00
2023-01-13T11:44:03.995Z,99735.16
2023-01-13T11:46:30.669Z,99750.88
2023-01-13T11:48:57.276Z,99757.59
2023-01-13T11:51:33.253Z,99753.44
2023-01-13T11:54:32.586Z,99745.94
2023-01-13T11:57:24.162Z,99740.34
2023-01-13T12:00:14.667Z,99763.97
2023-01-13T12:02:55.591Z,99761.09
2023-01-13T12:05:30.977Z,99753.72
2023-01-13T12:08:15.900Z,99744.66
2023-01-13T12:10:58.230Z,99758.06
2023-01-13T12:13:35.724Z,99754.91
2023-01-13T12:16:25.202Z,99750.25
2023-01-13T12:19:10.645Z,99761.78
2023-01-13T12:21:40.947Z,99775.25
2023-01-13T12:24:20.832Z,99769.47
2023-01-13T12:26:55.650Z,99746.50
2023-01-13T12:29:30.567Z,99741.09
2023-01-13T12:32:00.179Z,99761.00
2023-01-13T12:34:35.867Z,99768.19
2023-01-13T12:37:12.128Z,99784.63
2023-01-13T12:39:50.504Z,99772.66
2023-01-13T12:42:21.684Z,99771.56
2023-01-13T12:45:21.443Z,99776.78
2023-01-13T12:47:48.251Z,99789.78
2023-01-13T12:50:40.731Z,99787.75
2023-01-13T12:53:33.915Z,99792.28
2023-01-13T12:56:34.237Z,99808.41
2023-01-13T12:59:38.013Z,99823.00
2023-01-13T13:02:27.045Z,99834.00
2023-01-13T13:04:56.130Z,99841.47
2023-01-13T13:07:32.577Z,99833.25
2023-01-13T13:10:02.574Z,99838.03
2023-01-13T13:12:53.254Z,99832.41
2023-01-13T13:15:21.956Z,99829.91
2023-01-13T13:18:05.918Z,99834.69
2023-01-13T13:21:03.980Z,99825.47
2023-01-13T13:24:10.219Z,99835.59
2023-01-13T13:26:39.707Z,99844.34
2023-01-13T13:29:26.098Z,99849.84
2023-01-13T13:32:13.191Z,99852.13
2023-01-13T13:34:49.057Z,99853.19
2023-01-13T13:37:31.680Z,99849.69
2023-01-13T13:39:58.401Z,99864.78
2023-01-13T13:42:26.984Z,99865.84
2023-01-13T13:44:56.183Z,99874.00
2023-01-13T13:47:22.550Z,99864.44
2023-01-13T13:49:51.142Z,99880.78
2023-01-13T13:52:21.728Z,99875.91
2023-01-13T13:54:52.462Z,99871.06
2023-01-13T13:57:22.397Z,99881.41
2023-01-13T13:59:53.839Z,99893.22
2023-01-13T14:02:27.562Z,99874.34
2023-01-13T14:05:08.671Z,99880.63
2023-01-13T14:07:42.455Z,99898.25
2023-01-13T14:10:16.192Z,99907.22
2023-01-13T14:12:42.735Z,99913.50
2023-01-13T14:15:27.581Z,99900.41
2023-01-13T14:17:55.489Z,99908.28
2023-01-13T14:20:23.832Z,99912.00
2023-01-13T14:22:53.148Z,99920.81
2023-01-13T14:25:35.390Z,99912.78
2023-01-13T14:28:20.375Z,99919.53
2023-01-13T14:30:47.691Z,99930.75
2023-01-13T14:33:18.085Z,99925.50
2023-01-13T14:36:04.213Z,99936.25
2023-01-13T14:38:30.783Z,99922.69
2023-01-13T14:40:57.472Z,99933.94
2023-01-13T14:43:25.635Z,99951.63
2023-01-13T14:45:57.348Z,99955.69
2023-01-13T14:48:30.511Z,99956.66
2023-01-13T14:50:57.047Z,99962.78
2023-01-13T14:53:29.642Z,99969.97
2023-01-13T14:55:56.159Z,99971.22
2023-01-13T14:58:25.308Z,99976.00
2023-01-13T15:00:52.205Z,99980.81
2023-01-13T15:03:21.015Z,99993.06
2023-01-13T15:05:51.090Z,99993.06
2023-01-13T15:08:30.990Z,99993.31
2023-01-13T15:10:59.459Z,99996.75
2023-01-13T15:13:31.287Z,100003.06
2023-01-13T15:15:59.618Z,100010.25
2023-01-13T15:18:26.361Z,100011.00
2023-01-13T15:20:55.270Z,100014.69
2023-01-13T15:23:22.116Z,100019.81
2023-01-13T15:25:48.893Z,100017.50
2023-01-13T15:28:18.270Z,100027.19
2023-01-13T15:30:45.085Z,100038.22
2023-01-13T15:33:13.586Z,100041.06
2023-01-13T15:35:44.905Z,100050.56
2023-01-13T15:38:14.126Z,100050.25
2023-01-13T15:40:41.002Z,100051.56
2023-01-13T15:43:13.210Z,100053.78
2023-01-13T15:45:40.912Z,100066.28
2023-01-13T15:48:07.423Z,100064.13
2023-01-13T15:50:33.877Z,100062.28
2023-01-13T15:53:00.345Z,100062.28
2023-01-13T15:55:28.224Z,100069.97
2023-01-13T15:57:54.975Z,100054.28
2023-01-13T16:00:22.471Z,100076.63
2023-01-13T16:02:49.830Z,100074.78
2023-01-13T16:05:16.744Z,100068.75
2023-01-13T16:07:43.554Z,100067.59
2023-01-13T16:10:18.699Z,100088.97
2023-01-13T16:12:46.660Z,100082.09
2023-01-13T16:15:13.759Z,100090.63
2023-01-13T16:17:40.593Z,100087.66
2023-01-13T16:20:13.165Z,100100.81
2023-01-13T16:22:39.741Z,100109.50
2023-01-13T16:25:07.167Z,100114.34
2023-01-13T16:27:33.600Z,100112.22
2023-01-13T16:30:01.485Z,100118.00
2023-01-13T16:32:27.988Z,100130.88
2023-01-13T16:34:54.591Z,100130.56
2023-01-13T16:37:22.399Z,100135.22
2023-01-13T16:39:49.789Z,100130.38
2023-01-13T16:42:16.316Z,100129.56
2023-01-13T16:44:42.931Z,100134.91
2023-01-13T16:47:14.273Z,100144.28
2023-01-13T16:49:40.891Z,100149.44
2023-01-13T16:52:07.415Z,100138.25
2023-01-13T16:54:34.146Z,100144.41
2023-01-13T16:57:00.678Z,100142.75
2023-01-13T16:59:27.180Z,100166.28
2023-01-13T17:01:53.763Z,100169.28
2023-01-13T17:04:22.484Z,100176.47
2023-01-13T17:06:54.084Z,100169.47
2023-01-13T17:09:23.226Z,100170.97
2023-01-13T17:11:49.579Z,100186.16
2023-01-13T17:14:19.004Z,100182.63
2023-01-13T17:16:46.346Z,100190.84
2023-01-13T17:19:13.425Z,100193.16
2023-01-13T17:21:41.339Z,100200.50
2023-01-13T17:24:08.431Z,100206.66
2023-01-13T17:26:36.571Z,100207.50
2023-01-13T17:29:04.935Z,100214.69
2023-01-13T17:31:31.633Z,100202.66
2023-01-13T17:33:58.226Z,100208.19
2023-01-13T17:36:24.856Z,100227.41
2023-01-13T17:38:55.113Z,100221.88
2023-01-13T17:41:21.669Z,100222.25
2023-01-13T17:43:48.332Z,100220.22
2023-01-13T17:46:15.761Z,100225.56
2023-01-13T17:48:42.174Z,100222.19
2023-01-13T17:51:12.144Z,100233.75
2023-01-13T17:53:38.739Z,100228.59
2023-01-13T17:56:08.468Z,100231.25
2023-01-13T17:58:35.449Z,100235.44
2023-01-13T18:01:07.343Z,100242.28
2023-01-13T18:03:34.180Z,100240.25
2023-01-13T18:06:03.156Z,100245.94
2023-01-13T18:08:29.744Z,100249.28
2023-01-13T18:10:56.419Z,100240.25
2023-01-13T18:13:24.397Z,100248.28
2023-01-13T18:15:59.398Z,100243.63
2023-01-13T18:18:25.891Z,100256.00
2023-01-13T18:20:53.274Z,100252.31
2023-01-13T18:23:21.264Z,100263.66
2023-01-13T18:25:47.796Z,100267.84
2023-01-13T18:28:14.272Z,100278.53
2023-01-13T18:30:42.076Z,100274.66
2023-01-13T18:33:08.532Z,100276.31
2023-01-13T18:35:38.102Z,100285.72
2023-01-13T18:38:04.617Z,100291.38
2023-01-13T18:40:31.120Z,100289.03
2023-01-13T18:42:57.652Z,100286.19
2023-01-13T18:45:26.102Z,100300.22
2023-01-13T18:47:56.012Z,100294.38
2023-01-13T18:50:22.565Z,100292.69
2023-01-13T18:52:49.276Z,100293.69
2023-01-13T18:55:15.968Z,100286.03
2023-01-13T18:57:42.411Z,100293.03
2023-01-13T19:00:11.604Z,100288.03
2023-01-13T19:02:38.270Z,100299.22
2023-01-13T19:05:07.128Z,100302.38
2023-01-13T19:07:33.641Z,100298.00
2023-01-13T19:10:00.134Z,100310.38
2023-01-13T19:12:27.265Z,100313.38
2023-01-13T19:14:54.733Z,100309.88
2023-01-13T19:17:22.272Z,100325.09
2023-01-13T19:19:50.478Z,100328.09
2023-01-13T19:22:20.219Z,100331.94
2023-01-13T19:24:46.643Z,100327.78
2023-01-13T19:27:14.756Z,100337.47
2023-01-13T19:29:52.645Z,100344.66
2023-01-13T19:32:20.698Z,100333.94
2023-01-13T19:34:48.896Z,100335.25
2023-01-13T19:37:15.391Z,100347.41
2023-01-13T19:39:43.285Z,100340.03
2023-01-13T19:42:10.704Z,100350.59
2023-01-13T19:44:37.220Z,100351.38
2023-01-13T19:47:03.800Z,100349.94
2023-01-13T19:49:30.259Z,100358.41
2023-01-13T19:51:56.681Z,100359.91
2023-01-13T19:54:23.197Z,100354.91
2023-01-13T19:56:51.647Z,100358.97
2023-01-13T19:59:18.142Z,100363.38
2023-01-13T20:01:44.783Z,100372.63
2023-01-13T20:04:11.235Z,100369.44
2023-01-13T20:06:37.690Z,100384.97
2023-01-13T20:09:04.138Z,100373.88
2023-01-13T20:11:30.575Z,100379.50
2023-01-13T20:13:59.516Z,100384.78
2023-01-13T20:16:26.299Z,100389.28
2023-01-13T20:18:52.762Z,100384.94
2023-01-13T20:21:19.717Z,100377.03
2023-01-13T20:23:49.136Z,100371.75
2023-01-13T20:26:15.611Z,100378.09
2023-01-13T20:28:42.080Z,100398.81
2023-01-13T20:31:10.987Z,100392.50
2023-01-13T20:33:38.168Z,100397.28
2023-01-13T20:36:05.602Z,100385.03
2023-01-13T20:38:32.145Z,100386.06
2023-01-13T20:40:59.143Z,100405.31
2023-01-13T20:43:25.719Z,100398.88
2023-01-13T20:45:52.386Z,100416.78
2023-01-13T20:48:20.571Z,100414.50
2023-01-13T20:50:52.108Z,100413.00
2023-01-13T20:53:18.592Z,100406.88
2023-01-13T20:55:45.048Z,100435.72
2023-01-13T20:58:11.528Z,100443.25
2023-01-13T21:00:38.090Z,100446.03
2023-01-13T21:03:04.600Z,100440.03
2023-01-13T21:05:35.535Z,100442.09
2023-01-13T21:08:02.044Z,100445.75
2023-01-13T21:10:28.483Z,100452.31
2023-01-13T21:12:55.025Z,100452.00
2023-01-13T21:15:21.795Z,100450.00
2023-01-13T21:17:51.064Z,100445.84
2023-01-13T21:20:17.396Z,100463.72
2023-01-13T21:22:46.069Z,100462.44
2023-01-13T21:25:13.348Z,100456.34
2023-01-13T21:27:40.068Z,100455.25
2023-01-13T21:30:08.041Z,100450.44
2023-01-13T21:32:34.527Z,100457.38
2023-01-13T21:35:00.979Z,100471.78
2023-01-13T21:37:27.799Z,100464.69
2023-01-13T21:39:55.603Z,100465.19
2023-01-13T21:42:22.166Z,100471.25
2023-01-13T21:44:48.669Z,100474.94
2023-01-13T21:47:16.617Z,100472.72
2023-01-13T21:49:43.228Z,100470.88
2023-01-13T21:52:10.296Z,100485.75
2023-01-13T21:54:36.816Z,100475.06
2023-01-13T21:57:04.640Z,100459.31
2023-01-13T21:59:31.072Z,100487.28
2023-01-13T22:02:23.479Z,100480.56
2023-01-13T22:04:44.007Z,100504.28
2023-01-13T22:07:10.495Z,100494.22
2023-01-13T22:09:37.023Z,100501.41
2023-01-13T22:12:05.385Z,100511.31
2023-01-13T22:14:32.569Z,100509.09
2023-01-13T22:16:59.044Z,100509.78
2023-01-13T22:19:25.512Z,100508.47
2023-01-13T22:21:51.944Z,100513.38
2023-01-13T22:24:18.441Z,100526.09
2023-01-13T22:26:44.905Z,100518.00
2023-01-13T22:29:12.781Z,100530.13
2023-01-13T22:31:39.721Z,100518.72
2023-01-13T22:34:06.193Z,100523.28
2023-01-13T22:36:32.678Z,100542.88
2023-01-13T22:38:59.184Z,100539.28
2023-01-13T22:41:25.934Z,100536.69
2023-01-13T22:43:52.645Z,100539.44
2023-01-13T22:46:20.470Z,100545.84
2023-01-13T22:48:47.333Z,100546.59
2023-01-13T22:51:15.923Z,100560.09
2023-01-13T22:53:43.601Z,100550.44
2023-01-13T22:56:16.301Z,100548.13
2023-01-13T22:58:43.239Z,100558.81
2023-01-13T23:01:10.987Z,100559.09
2023-01-13T23:03:39.231Z,100559.41
2023-01-13T23:06:06.002Z,100559.09
2023-01-13T23:08:33.170Z,100556.34
2023-01-13T23:11:01.255Z,100561.84
2023-01-13T23:13:27.855Z,100558.16
2023-01-13T23:15:54.353Z,100574.25
2023-01-13T23:18:20.921Z,100576.47
2023-01-13T23:20:48.750Z,100569.00
2023-01-13T23:23:15.213Z,100569.22
2023-01-13T23:25:49.027Z,100571.28
2023-01-13T23:28:15.612Z,100570.06
2023-01-13T23:30:42.128Z,100583.63
2023-01-13T23:33:08.591Z,100592.09
2023-01-13T23:35:35.015Z,100586.91
2023-01-13T23:38:02.862Z,100586.13
2023-01-13T23:40:29.318Z,100599.75
2023-01-13T23:42:55.773Z,100583.63
2023-01-13T23:45:22.261Z,100605.59
2023-01-13T23:47:48.760Z,100601.63
2023-01-13T23:50:15.842Z,100596.81
2023-01-13T23:52:42.453Z,100588.59
2023-01-13T23:55:10.447Z,100595.13
2023-01-13T23:57:36.903Z,100565.13
